createdAt,value
2018-07-11T00:01:02.461Z,4.17
2018-07-11T00:06:04.946Z,4.47
2018-07-11T00:11:08.426Z,6.37
2018-07-11T00:16:10.859Z,2.93
2018-07-11T00:21:13.295Z,4.37
2018-07-11T00:26:15.814Z,4.53
2018-07-11T00:31:18.245Z,8.20
2018-07-11T00:36:20.654Z,4.13
2018-07-11T00:41:23.061Z,4.33
2018-07-11T00:46:25.768Z,4.63
2018-07-11T00:51:28.191Z,3.27
2018-07-11T00:56:30.592Z,3.20
2018-07-11T01:01:33.521Z,6.00
2018-07-11T01:06:35.955Z,4.17
2018-07-11T01:11:38.423Z,3.33
2018-07-11T01:16:40.849Z,3.10
2018-07-11T01:21:43.309Z,4.63
2018-07-11T01:26:45.722Z,3.87
2018-07-11T01:31:48.094Z,3.50
2018-07-11T01:36:50.718Z,5.33
2018-07-11T01:41:53.204Z,3.73
2018-07-11T01:46:55.634Z,3.50
2018-07-11T01:52:03.586Z,3.50
2018-07-11T01:57:05.968Z,3.60
2018-07-11T02:02:08.393Z,4.00
2018-07-11T02:07:11.848Z,4.83
2018-07-11T02:12:14.308Z,4.03
2018-07-11T02:17:17.221Z,4.87
2018-07-11T02:22:19.646Z,5.13
2018-07-11T02:27:22.151Z,4.60
2018-07-11T02:32:24.603Z,6.17
2018-07-11T02:37:26.973Z,5.17
2018-07-11T02:42:29.392Z,5.03
2018-07-11T02:47:37.200Z,4.77
2018-07-11T02:52:40.072Z,4.70
2018-07-11T02:57:42.796Z,4.40
2018-07-11T03:02:45.221Z,5.57
2018-07-11T03:07:48.521Z,5.73
2018-07-11T03:12:50.977Z,5.83
2018-07-11T03:17:53.333Z,4.40
2018-07-11T03:22:56.161Z,4.63
2018-07-11T03:27:58.553Z,5.90
2018-07-11T03:33:00.924Z,4.60
2018-07-11T03:38:03.317Z,5.20
2018-07-11T03:43:05.840Z,4.77
2018-07-11T03:48:08.230Z,5.60
2018-07-11T03:53:10.668Z,5.13
2018-07-11T03:58:13.707Z,4.70
2018-07-11T04:03:16.156Z,6.07
2018-07-11T04:08:18.492Z,7.03
2018-07-11T04:13:20.870Z,6.77
2018-07-11T04:18:27.869Z,7.83
2018-07-11T04:23:30.336Z,8.53
2018-07-11T04:28:32.737Z,8.57
2018-07-11T04:33:35.132Z,7.93
2018-07-11T04:38:37.545Z,10.40
2018-07-11T04:43:39.980Z,8.93
2018-07-11T04:48:42.452Z,9.40
2018-07-11T04:53:45.171Z,9.43
2018-07-11T04:58:47.626Z,12.90
2018-07-11T05:03:49.980Z,11.25
2018-07-11T05:08:52.455Z,14.13
2018-07-11T05:13:54.933Z,13.03
2018-07-11T05:18:57.636Z,15.97
2018-07-11T05:24:00.121Z,15.35
2018-07-11T05:29:02.480Z,16.25
2018-07-11T05:34:04.887Z,15.78
2018-07-11T05:39:07.409Z,15.93
2018-07-11T05:44:09.799Z,12.58
2018-07-11T05:49:12.224Z,16.00
2018-07-11T05:54:14.628Z,14.03
2018-07-11T05:59:16.992Z,18.23
2018-07-11T06:04:19.786Z,18.60
2018-07-11T06:09:22.196Z,12.23
2018-07-11T06:14:24.612Z,12.98
2018-07-11T06:19:27.545Z,12.63
2018-07-11T06:24:30.046Z,14.43
2018-07-11T06:29:32.550Z,14.73
2018-07-11T06:34:35.102Z,16.73
2018-07-11T06:39:37.597Z,14.43
2018-07-11T06:44:40.212Z,14.25
2018-07-11T06:49:45.580Z,14.95
2018-07-11T06:54:48.000Z,11.93
2018-07-11T06:59:50.437Z,12.33
2018-07-11T07:04:52.841Z,8.88
2018-07-11T07:09:55.312Z,9.70
2018-07-11T07:14:58.346Z,10.93
2018-07-11T07:25:07.773Z,10.32
2018-07-11T07:30:10.140Z,16.67
2018-07-11T07:35:12.529Z,10.95
2018-07-11T07:40:14.962Z,13.68
2018-07-11T07:45:17.405Z,10.10
2018-07-11T07:50:20.438Z,9.73
2018-07-11T07:55:22.930Z,8.05
2018-07-11T08:00:25.399Z,8.13
2018-07-11T08:05:27.800Z,10.48
2018-07-11T08:10:30.220Z,10.03
2018-07-11T08:15:32.612Z,9.90
2018-07-11T08:20:35.065Z,12.18
2018-07-11T08:25:43.015Z,12.30
2018-07-11T08:30:54.081Z,10.00
2018-07-11T08:36:31.281Z,11.20
2018-07-11T08:41:38.184Z,7.60
2018-07-11T08:46:45.196Z,10.93
2018-07-11T08:51:53.363Z,6.92
2018-07-11T08:57:06.286Z,8.55
2018-07-11T09:04:15.728Z,8.60
2018-07-11T09:09:56.856Z,6.70
2018-07-11T09:17:11.494Z,9.53
2018-07-11T09:22:23.565Z,9.58
2018-07-11T09:27:26.965Z,10.75
2018-07-11T09:32:29.395Z,7.40
2018-07-11T09:37:31.854Z,8.03
2018-07-11T09:42:34.283Z,6.22
2018-07-11T09:47:36.706Z,9.05
2018-07-11T09:52:39.158Z,7.97
2018-07-11T09:57:41.667Z,9.95
2018-07-11T10:02:44.084Z,11.22
2018-07-11T10:07:46.505Z,9.65
2018-07-11T10:12:49.876Z,7.45
2018-07-11T10:17:52.383Z,6.85
2018-07-11T10:22:54.972Z,11.68
2018-07-11T10:28:03.593Z,6.22
2018-07-11T10:33:05.964Z,7.37
2018-07-11T10:38:08.765Z,5.17
2018-07-11T10:43:11.198Z,12.30
2018-07-11T10:48:13.625Z,5.15
2018-07-11T10:53:16.047Z,7.58
2018-07-11T10:58:18.433Z,4.03
2018-07-11T11:03:22.706Z,4.03
2018-07-11T11:08:26.153Z,4.37
2018-07-11T11:13:28.552Z,6.28
2018-07-11T11:18:30.980Z,4.90
2018-07-11T11:23:33.425Z,4.75
2018-07-11T11:28:35.981Z,5.00
2018-07-11T11:33:38.428Z,3.10
2018-07-11T11:38:40.890Z,3.83
2018-07-11T11:43:43.873Z,5.17
2018-07-11T11:48:46.368Z,5.40
2018-07-11T11:53:48.841Z,3.12
2018-07-11T11:58:51.314Z,4.72
2018-07-11T12:03:53.992Z,5.33
2018-07-11T12:08:56.852Z,4.50
2018-07-11T12:13:59.301Z,4.22
2018-07-11T12:19:02.244Z,2.25
2018-07-11T12:24:04.730Z,5.03
2018-07-11T12:29:07.237Z,4.55
2018-07-11T12:34:09.726Z,3.17
2018-07-11T12:39:14.355Z,2.40
2018-07-11T12:44:17.652Z,4.22
2018-07-11T12:49:20.869Z,4.17
2018-07-11T12:54:23.284Z,3.17
2018-07-11T12:59:26.522Z,1.15
2018-07-11T13:04:29.180Z,1.75
2018-07-11T13:09:31.773Z,2.47
2018-07-11T13:14:35.095Z,3.98
2018-07-11T13:19:37.608Z,2.55
2018-07-11T13:24:40.700Z,5.60
2018-07-11T13:29:43.187Z,1.35
2018-07-11T13:40:08.752Z,1.18
2018-07-11T13:45:11.897Z,3.12
2018-07-11T13:50:14.497Z,3.58
2018-07-11T13:56:56.903Z,2.95
2018-07-11T14:01:59.669Z,2.02
2018-07-11T14:07:02.245Z,1.20
2018-07-11T14:12:09.465Z,2.87
2018-07-11T14:17:13.163Z,2.35
2018-07-11T14:22:22.310Z,3.35
2018-07-11T14:27:27.048Z,2.02
2018-07-11T14:32:30.547Z,2.50
2018-07-11T14:37:32.967Z,2.70
2018-07-11T14:42:36.261Z,1.67
2018-07-11T14:47:44.103Z,2.92
2018-07-11T14:52:46.743Z,3.55
2018-07-11T14:57:49.939Z,5.62
2018-07-11T15:02:53.789Z,4.65
2018-07-11T15:07:56.429Z,3.30
2018-07-11T15:12:58.937Z,3.80
2018-07-11T15:18:01.483Z,2.25
2018-07-11T15:23:03.914Z,2.55
2018-07-11T15:28:06.425Z,2.25
2018-07-11T15:33:08.844Z,4.05
2018-07-11T15:38:11.371Z,3.25
2018-07-11T15:43:15.793Z,4.67
2018-07-11T15:48:18.177Z,6.20
2018-07-11T15:53:20.950Z,5.92
2018-07-11T15:58:25.054Z,1.80
2018-07-11T16:03:27.546Z,3.72
2018-07-11T16:08:30.071Z,1.57
2018-07-11T16:13:32.799Z,4.95
2018-07-11T16:18:35.395Z,1.80
2018-07-11T16:23:37.787Z,2.37
2018-07-11T16:28:40.324Z,2.60
2018-07-11T16:33:42.728Z,2.47
2018-07-11T16:38:45.862Z,3.47
2018-07-11T16:43:48.482Z,1.60
2018-07-11T16:48:51.264Z,1.87
2018-07-11T16:53:54.158Z,1.67
2018-07-11T16:58:59.670Z,2.08
2018-07-11T17:04:04.803Z,3.15
2018-07-11T17:09:10.228Z,1.40
2018-07-11T17:14:13.264Z,1.62
2018-07-11T17:19:17.239Z,1.30
2018-07-11T17:24:20.953Z,3.25
2018-07-11T17:29:25.537Z,2.58
2018-07-11T17:34:27.932Z,5.58
2018-07-11T17:39:30.805Z,2.67
2018-07-11T17:44:33.405Z,3.15
2018-07-11T17:49:40.509Z,2.95
2018-07-11T17:56:53.664Z,2.27
2018-07-11T18:01:57.861Z,2.85
2018-07-11T18:07:03.422Z,1.82
2018-07-11T18:12:10.453Z,4.62
2018-07-11T18:17:18.732Z,7.00
2018-07-11T18:22:43.763Z,3.17
2018-07-11T18:27:53.101Z,2.90
2018-07-11T18:33:07.503Z,3.00
2018-07-11T18:38:18.979Z,2.58
2018-07-11T18:44:29.734Z,1.75
2018-07-11T18:49:34.251Z,1.72
2018-07-11T18:54:39.444Z,3.22
2018-07-11T18:59:51.992Z,2.17
2018-07-11T19:04:58.552Z,2.00
2018-07-11T19:10:06.157Z,1.80
2018-07-11T19:15:13.726Z,2.20
2018-07-11T19:20:30.065Z,4.60
2018-07-11T19:25:36.161Z,1.80
2018-07-11T19:30:46.845Z,6.65
2018-07-11T19:35:51.883Z,2.08
2018-07-11T19:41:03.709Z,3.15
2018-07-11T19:46:12.604Z,3.17
2018-07-11T19:53:27.244Z,2.22
2018-07-11T19:58:29.782Z,2.80
2018-07-11T20:03:32.201Z,3.50
2018-07-11T20:08:35.209Z,3.40
2018-07-11T20:13:37.647Z,3.70
2018-07-11T20:18:40.080Z,4.10
2018-07-11T20:23:42.419Z,2.90
2018-07-11T20:28:45.244Z,3.80
2018-07-11T20:33:48.050Z,5.97
2018-07-11T20:38:50.565Z,6.42
2018-07-11T20:43:53.072Z,3.40
2018-07-11T20:48:55.520Z,3.62
2018-07-11T20:53:58.615Z,3.75
2018-07-11T20:59:06.492Z,3.12
2018-07-11T21:05:17.000Z,4.67
2018-07-11T21:10:25.108Z,3.80
2018-07-11T21:15:33.108Z,6.25
2018-07-11T21:20:35.464Z,5.62
2018-07-11T21:25:37.885Z,3.62
2018-07-11T21:30:40.313Z,6.33
2018-07-11T21:35:42.907Z,5.10
2018-07-11T21:40:45.358Z,6.45
2018-07-11T21:45:47.764Z,5.47
2018-07-11T21:50:50.208Z,5.28
2018-07-11T21:55:52.620Z,3.60
2018-07-11T22:00:55.933Z,3.80
2018-07-11T22:05:59.160Z,4.12
2018-07-11T22:11:01.713Z,5.78
2018-07-11T22:16:04.111Z,3.27
2018-07-11T22:21:07.065Z,3.85
2018-07-11T22:26:08.888Z,4.12
2018-07-11T22:31:10.721Z,3.67
2018-07-11T22:36:12.593Z,5.08
2018-07-11T22:41:14.457Z,3.93
2018-07-11T22:46:16.350Z,4.22
2018-07-11T22:51:18.161Z,3.65
2018-07-11T22:56:19.987Z,3.52
2018-07-11T23:01:21.849Z,3.72
2018-07-11T23:06:23.703Z,3.90
2018-07-11T23:11:25.615Z,4.15
2018-07-11T23:16:27.474Z,5.75
2018-07-11T23:21:29.282Z,4.93
2018-07-11T23:26:31.185Z,6.57
2018-07-11T23:31:33.013Z,5.35
2018-07-11T23:36:34.822Z,8.10
2018-07-11T23:41:36.706Z,7.78
2018-07-11T23:46:38.698Z,4.77
2018-07-11T23:51:40.608Z,4.13
2018-07-11T23:56:42.451Z,4.50
